^^
Your Local Weather - Clay, NY Station Historical Data
Daily Summary for July 21, 2017 Units:  English    Metric   Both
« Previous Day
Next Day »
Daily Weekly Monthly Yearly Custom
  High: Low: Average:
Temperature: 83.1 °F 62.0 °F 72 °F
Dew Point: 70.8 °F 58.1 °F 64 °F
Humidity: 95% 54% 78%
Wind Speed: 3.0mph 0.0mph 0.6mph
Wind Gust: 8.0mph - -
Wind- - West
Pressure: 29.88 in 29.83 in -
Precipitation: 0.00 in    
Historical Graphs
 
 
Tabular Data for July 21, 2017
Time Temperature Dew Point Pressure Wind Wind Speed Wind Gust Humidity Rainfall Rate (Hourly) solar
00:00 66.1 °F 62.8 °F 29.85 in Calm     89% 0.00 in 0 W/m2
00:06 65.9 °F 62.9 °F 29.85 in Calm     90% 0.00 in 0 W/m2
00:12 65.8 °F 62.8 °F 29.85 in Calm     90% 0.00 in 0 W/m2
00:18 65.6 °F 62.6 °F 29.85 in Calm     90% 0.00 in 0 W/m2
00:24 65.5 °F 62.5 °F 29.85 in Calm     90% 0.00 in 0 W/m2
00:30 65.3 °F 62.3 °F 29.85 in Calm     90% 0.00 in 0 W/m2
00:36 65.2 °F 62.2 °F 29.85 in Calm     90% 0.00 in 0 W/m2
00:42 65.1 °F 62.4 °F 29.85 in Calm     91% 0.00 in 0 W/m2
00:48 65.1 °F 62.4 °F 29.85 in Calm     91% 0.00 in 0 W/m2
00:54 65.1 °F 62.4 °F 29.85 in Calm     91% 0.00 in 0 W/m2
01:00 65.0 °F 62.3 °F 29.85 in Calm     91% 0.00 in 0 W/m2
01:06 64.9 °F 62.2 °F 29.85 in Calm     91% 0.00 in 0 W/m2
01:12 64.8 °F 62.1 °F 29.85 in Calm     91% 0.00 in 0 W/m2
01:18 64.9 °F 62.5 °F 29.85 in Calm     92% 0.00 in 0 W/m2
01:24 65.0 °F 62.6 °F 29.85 in Calm     92% 0.00 in 0 W/m2
01:30 65.2 °F 62.8 °F 29.85 in Calm     92% 0.00 in 0 W/m2
01:36 65.4 °F 63.0 °F 29.85 in Calm     92% 0.00 in 0 W/m2
01:42 65.5 °F 63.1 °F 29.85 in Calm     92% 0.00 in 0 W/m2
01:48 65.9 °F 63.5 °F 29.85 in Calm     92% 0.00 in 0 W/m2
01:54 66.0 °F 63.6 °F 29.85 in Calm     92% 0.00 in 0 W/m2
02:00 66.1 °F 63.7 °F 29.84 in Calm     92% 0.00 in 0 W/m2
02:06 66.2 °F 63.8 °F 29.84 in Calm     92% 0.00 in 0 W/m2
02:12 66.3 °F 63.9 °F 29.84 in Calm     92% 0.00 in 0 W/m2
02:18 66.4 °F 64.0 °F 29.84 in Calm     92% 0.00 in 0 W/m2
02:24 66.4 °F 64.0 °F 29.84 in Calm     92% 0.00 in 0 W/m2
02:30 66.4 °F 64.0 °F 29.84 in Calm     92% 0.00 in 0 W/m2
02:36 66.3 °F 63.9 °F 29.84 in Calm     92% 0.00 in 0 W/m2
02:42 66.2 °F 63.8 °F 29.84 in Calm     92% 0.00 in 0 W/m2
02:48 66.0 °F 63.6 °F 29.84 in Calm     92% 0.00 in 0 W/m2
02:54 65.8 °F 63.4 °F 29.84 in Calm     92% 0.00 in 0 W/m2
03:00 65.8 °F 63.4 °F 29.84 in Calm     92% 0.00 in 0 W/m2
03:06 65.7 °F 63.3 °F 29.84 in Calm     92% 0.00 in 0 W/m2
03:12 65.7 °F 63.3 °F 29.84 in Calm     92% 0.00 in 0 W/m2
03:18 65.5 °F 63.1 °F 29.84 in Calm     92% 0.00 in 0 W/m2
03:24 65.4 °F 63.0 °F 29.84 in Calm     92% 0.00 in 0 W/m2
03:30 65.3 °F 62.9 °F 29.84 in Calm     92% 0.00 in 0 W/m2
03:36 65.1 °F 62.7 °F 29.84 in Calm     92% 0.00 in 0 W/m2
03:42 64.9 °F 62.5 °F 29.84 in Calm     92% 0.00 in 0 W/m2
03:48 64.8 °F 62.7 °F 29.84 in Calm     93% 0.00 in 0 W/m2
03:54 64.9 °F 62.8 °F 29.84 in Calm     93% 0.00 in 0 W/m2
04:00 64.8 °F 62.7 °F 29.84 in Calm     93% 0.00 in 0 W/m2
04:06 64.7 °F 62.3 °F 29.84 in Calm     92% 0.00 in 0 W/m2
04:12 64.7 °F 62.6 °F 29.84 in Calm     93% 0.00 in 0 W/m2
04:18 64.7 °F 62.6 °F 29.84 in Calm     93% 0.00 in 0 W/m2
04:24 64.7 °F 62.6 °F 29.84 in Calm     93% 0.00 in 0 W/m2
04:30 64.7 °F 62.6 °F 29.84 in Calm     93% 0.00 in 0 W/m2
04:36 64.6 °F 62.5 °F 29.85 in Calm     93% 0.00 in 0 W/m2
04:42 64.5 °F 62.4 °F 29.85 in Calm     93% 0.00 in 0 W/m2
04:48 64.3 °F 62.2 °F 29.85 in Calm     93% 0.00 in 0 W/m2
04:54 64.2 °F 62.1 °F 29.85 in Calm     93% 0.00 in 0 W/m2
05:00 64.2 °F 62.1 °F 29.85 in Calm     93% 0.00 in 0 W/m2
05:06 64.2 °F 62.1 °F 29.85 in Calm     93% 0.00 in 0 W/m2
05:12 64.2 °F 62.1 °F 29.85 in Calm     93% 0.00 in 0 W/m2
05:18 64.1 °F 62.0 °F 29.85 in Calm     93% 0.00 in 0 W/m2
05:24 64.0 °F 61.9 °F 29.85 in Calm     93% 0.00 in 0 W/m2
05:30 64.0 °F 61.9 °F 29.85 in Calm     93% 0.00 in 0 W/m2
05:36 63.9 °F 61.8 °F 29.85 in Calm     93% 0.00 in 0 W/m2
05:42 63.8 °F 61.7 °F 29.85 in Calm     93% 0.00 in 0 W/m2
05:48 63.8 °F 61.7 °F 29.85 in Calm     93% 0.00 in 0 W/m2
05:54 63.8 °F 62.0 °F 29.85 in Calm     94% 0.00 in 7 W/m2
06:00 63.7 °F 61.9 °F 29.85 in Calm     94% 0.00 in 11 W/m2
06:06 63.6 °F 61.8 °F 29.85 in Calm     94% 0.00 in 16 W/m2
06:12 63.6 °F 61.8 °F 29.85 in Calm     94% 0.00 in 23 W/m2
06:18 63.6 °F 61.8 °F 29.85 in Calm     94% 0.00 in 28 W/m2
06:24 63.8 °F 62.0 °F 29.85 in Calm     94% 0.00 in 35 W/m2
06:30 64.1 °F 62.3 °F 29.85 in Calm     94% 0.00 in 46 W/m2
06:36 64.4 °F 62.6 °F 29.85 in Calm     94% 0.00 in 51 W/m2
06:42 64.7 °F 62.9 °F 29.85 in Calm     94% 0.00 in 42 W/m2
06:48 65.0 °F 63.2 °F 29.85 in Calm     94% 0.00 in 53 W/m2
06:54 65.2 °F 63.4 °F 29.86 in Calm     94% 0.00 in 39 W/m2
07:00 65.6 °F 63.8 °F 29.86 in Calm     94% 0.00 in 40 W/m2
07:06 66.7 °F 64.9 °F 29.87 in Calm     94% 0.00 in 47 W/m2
07:12 67.6 °F 65.8 °F 29.87 in Calm     94% 0.00 in 76 W/m2
07:18 68.1 °F 66.3 °F 29.87 in Calm   1.0 mph 94% 0.00 in 37 W/m2
07:24 68.3 °F 66.8 °F 29.87 in Calm   1.0 mph 95% 0.00 in 51 W/m2
07:30 68.6 °F 66.8 °F 29.87 in Calm     94% 0.00 in 56 W/m2
07:36 68.7 °F 66.9 °F 29.87 in NW 1.0 mph 3.0 mph 94% 0.00 in 56 W/m2
07:42 68.9 °F 67.1 °F 29.87 in NW 1.0 mph 1.0 mph 94% 0.00 in 53 W/m2
07:48 69.1 °F 67.3 °F 29.88 in Calm   1.0 mph 94% 0.00 in 54 W/m2
07:54 69.2 °F 67.4 °F 29.88 in Calm   2.0 mph 94% 0.00 in 62 W/m2
08:00 69.2 °F 67.4 °F 29.88 in NW 1.0 mph 1.0 mph 94% 0.00 in 67 W/m2
08:06 69.4 °F 67.6 °F 29.88 in Calm   1.0 mph 94% 0.00 in 83 W/m2
08:12 69.6 °F 67.8 °F 29.88 in Calm     94% 0.00 in 97 W/m2
08:18 69.6 °F 67.8 °F 29.88 in SW 1.0 mph 1.0 mph 94% 0.00 in 95 W/m2
08:24 69.9 °F 67.8 °F 29.88 in West 1.0 mph 1.0 mph 93% 0.00 in 100 W/m2
08:30 70.0 °F 67.9 °F 29.88 in Calm   2.0 mph 93% 0.00 in 118 W/m2
08:36 70.1 °F 68.0 °F 29.88 in West 1.0 mph 2.0 mph 93% 0.00 in 142 W/m2
08:42 70.4 °F 68.0 °F 29.88 in West 1.0 mph 1.0 mph 92% 0.00 in 338 W/m2
08:48 71.0 °F 68.6 °F 29.88 in Calm   1.0 mph 92% 0.00 in 225 W/m2
08:54 71.1 °F 68.0 °F 29.88 in SW 1.0 mph 1.0 mph 90% 0.00 in 204 W/m2
09:00 71.2 °F 67.8 °F 29.88 in WSW 3.0 mph 3.0 mph 89% 0.00 in 181 W/m2
09:06 71.7 °F 68.3 °F 29.88 in SW 2.0 mph 3.0 mph 89% 0.00 in 195 W/m2
09:14 72.4 °F 68.6 °F 29.88 in Calm   1.0 mph 88% 0.00 in 262 W/m2
09:20 73.1 °F 68.7 °F 29.88 in Calm     86% 0.00 in 216 W/m2
09:26 73.3 °F 68.5 °F 29.88 in SW 1.0 mph 5.0 mph 85% 0.00 in 657 W/m2
09:32 73.5 °F 68.4 °F 29.88 in SW 2.0 mph 2.0 mph 84% 0.00 in 304 W/m2
09:38 74.0 °F 68.9 °F 29.88 in NW 2.0 mph 3.0 mph 84% 0.00 in 712 W/m2
09:44 74.3 °F 68.4 °F 29.88 in WSW 2.0 mph 5.0 mph 82% 0.00 in 165 W/m2
09:50 74.3 °F 68.4 °F 29.88 in WSW 3.0 mph 3.0 mph 82% 0.00 in 628 W/m2
09:56 74.8 °F 68.9 °F 29.88 in SW 3.0 mph 5.0 mph 82% 0.00 in 652 W/m2
10:02 75.2 °F 68.6 °F 29.88 in WSW 2.0 mph 4.0 mph 80% 0.00 in 679 W/m2
10:08 75.4 °F 68.4 °F 29.88 in WSW 2.0 mph 4.0 mph 79% 0.00 in 262 W/m2
10:14 75.8 °F 69.6 °F 29.88 in WSW 1.0 mph 3.0 mph 81% 0.00 in 325 W/m2
10:20 76.1 °F 69.1 °F 29.87 in WSW 1.0 mph 1.0 mph 79% 0.00 in 246 W/m2
10:26 76.8 °F 69.4 °F 29.87 in WSW 1.0 mph 2.0 mph 78% 0.00 in 856 W/m2
10:32 77.5 °F 70.8 °F 29.87 in WSW 1.0 mph 1.0 mph 80% 0.00 in 789 W/m2
10:38 78.1 °F 69.9 °F 29.87 in WNW 1.0 mph 1.0 mph 76% 0.00 in 770 W/m2
10:44 79.0 °F 68.8 °F 29.86 in NW 1.0 mph 2.0 mph 71% 0.00 in 802 W/m2
10:50 79.3 °F 68.7 °F 29.87 in SW 1.0 mph 8.0 mph 70% 0.00 in 849 W/m2
10:56 78.6 °F 68.8 °F 29.87 in West 2.0 mph 8.0 mph 72% 0.00 in 849 W/m2
11:02 78.7 °F 67.7 °F 29.87 in West 1.0 mph 1.0 mph 69% 0.00 in 188 W/m2
11:08 79.4 °F 68.3 °F 29.87 in NNW 1.0 mph 3.0 mph 69% 0.00 in 849 W/m2
11:14 79.3 °F 69.1 °F 29.87 in SW 1.0 mph 6.0 mph 71% 0.00 in 933 W/m2
11:20 79.5 °F 69.3 °F 29.87 in SW 2.0 mph 2.0 mph 71% 0.00 in 874 W/m2
11:26 80.9 °F 68.0 °F 29.87 in NW 1.0 mph 2.0 mph 65% 0.00 in 939 W/m2
11:32 80.2 °F 66.9 °F 29.87 in WSW 1.0 mph 1.0 mph 64% 0.00 in 230 W/m2
11:38 80.1 °F 65.9 °F 29.87 in SW 1.0 mph 3.0 mph 62% 0.00 in 898 W/m2
11:44 81.1 °F 70.0 °F 29.87 in NNW 1.0 mph 2.0 mph 69% 0.00 in 888 W/m2
11:50 80.8 °F 65.6 °F 29.86 in SW 1.0 mph 1.0 mph 60% 0.00 in 274 W/m2
11:56 80.3 °F 67.5 °F 29.86 in SSW 1.0 mph 2.0 mph 65% 0.00 in 902 W/m2
12:02 81.0 °F 66.8 °F 29.86 in NNW 1.0 mph 4.0 mph 62% 0.00 in 914 W/m2
12:08 82.0 °F 67.7 °F 29.85 in NNW 1.0 mph 4.0 mph 62% 0.00 in 1013 W/m2
12:14 81.6 °F 68.2 °F 29.86 in NW 1.0 mph 3.0 mph 64% 0.00 in 1011 W/m2
12:20 80.9 °F 68.0 °F 29.85 in NNE 1.0 mph 4.0 mph 65% 0.00 in 946 W/m2
12:26 81.4 °F 67.6 °F 29.85 in NW 2.0 mph 4.0 mph 63% 0.00 in 902 W/m2
12:32 81.4 °F 65.7 °F 29.85 in WSW 2.0 mph 3.0 mph 59% 0.00 in 1018 W/m2
12:38 81.7 °F 68.8 °F 29.85 in SSW 2.0 mph 3.0 mph 65% 0.00 in 970 W/m2
12:44 82.5 °F 67.7 °F 29.85 in SSW 1.0 mph 1.0 mph 61% 0.00 in 798 W/m2
12:50 80.8 °F 67.0 °F 29.85 in WSW 1.0 mph 1.0 mph 63% 0.00 in 255 W/m2
12:56 81.4 °F 66.2 °F 29.84 in West 2.0 mph 2.0 mph 60% 0.00 in 949 W/m2
13:02 81.4 °F 67.1 °F 29.84 in SW 2.0 mph 3.0 mph 62% 0.00 in 858 W/m2
13:08 81.9 °F 67.1 °F 29.84 in SW 2.0 mph 3.0 mph 61% 0.00 in 935 W/m2
13:14 81.5 °F 66.8 °F 29.85 in SW 1.0 mph 7.0 mph 61% 0.00 in 346 W/m2
13:20 81.2 °F 65.5 °F 29.85 in WSW 3.0 mph 3.0 mph 59% 0.00 in 821 W/m2
13:26 82.2 °F 66.4 °F 29.85 in WSW 1.0 mph 3.0 mph 59% 0.00 in 789 W/m2
13:32 81.3 °F 65.6 °F 29.85 in WNW 2.0 mph 4.0 mph 59% 0.00 in 343 W/m2
13:38 81.9 °F 66.2 °F 29.84 in WSW 2.0 mph 4.0 mph 59% 0.00 in 837 W/m2
13:44 81.9 °F 65.2 °F 29.84 in WNW 2.0 mph 4.0 mph 57% 0.00 in 352 W/m2
13:50 81.7 °F 67.9 °F 29.84 in North 2.0 mph 2.0 mph 63% 0.00 in 884 W/m2
13:56 81.9 °F 66.6 °F 29.84 in North 1.0 mph 4.0 mph 60% 0.00 in 900 W/m2
14:02 82.6 °F 64.8 °F 29.84 in North 1.0 mph 2.0 mph 55% 0.00 in 826 W/m2
14:08 82.8 °F 66.5 °F 29.84 in West 1.0 mph 1.0 mph 58% 0.00 in 875 W/m2
14:14 83.1 °F 66.3 °F 29.84 in WNW 1.0 mph 2.0 mph 57% 0.00 in 387 W/m2
14:20 83.0 °F 66.7 °F 29.84 in WNW 1.0 mph 1.0 mph 58% 0.00 in 352 W/m2
14:26 82.9 °F 69.5 °F 29.84 in SW 1.0 mph 2.0 mph 64% 0.00 in 835 W/m2
14:32 82.7 °F 67.4 °F 29.84 in West 1.0 mph 2.0 mph 60% 0.00 in 677 W/m2
14:38 81.9 °F 66.2 °F 29.84 in NW 1.0 mph 3.0 mph 59% 0.00 in 531 W/m2
14:46 81.8 °F 66.6 °F 29.84 in SSW 1.0 mph 1.0 mph 60% 0.00 in 343 W/m2
14:52 81.8 °F 66.6 °F 29.84 in NW 1.0 mph 3.0 mph 60% 0.00 in 696 W/m2
14:58 82.5 °F 67.2 °F 29.84 in NNW 1.0 mph 3.0 mph 60% 0.00 in 330 W/m2
15:04 81.8 °F 67.0 °F 29.84 in NW 1.0 mph 3.0 mph 61% 0.00 in 350 W/m2
15:10 81.5 °F 65.3 °F 29.83 in NNE 1.0 mph 3.0 mph 58% 0.00 in 330 W/m2
15:16 81.2 °F 66.5 °F 29.83 in NW 2.0 mph 3.0 mph 61% 0.00 in 322 W/m2
15:22 81.2 °F 65.0 °F 29.83 in NNW 1.0 mph 3.0 mph 58% 0.00 in 584 W/m2
15:28 81.7 °F 66.9 °F 29.83 in WNW 3.0 mph 5.0 mph 61% 0.00 in 578 W/m2
15:34 82.4 °F 67.1 °F 29.83 in NNW 2.0 mph 3.0 mph 60% 0.00 in 714 W/m2
15:40 83.1 °F 67.8 °F 29.83 in NNW 2.0 mph 3.0 mph 60% 0.00 in 649 W/m2
15:46 82.5 °F 66.7 °F 29.83 in North 2.0 mph 3.0 mph 59% 0.00 in 691 W/m2
15:52 82.7 °F 66.4 °F 29.83 in NNW 1.0 mph 2.0 mph 58% 0.00 in 656 W/m2
15:58 82.7 °F 66.4 °F 29.83 in NW 1.0 mph 2.0 mph 58% 0.00 in 631 W/m2
16:04 82.7 °F 67.4 °F 29.83 in NNW 1.0 mph 4.0 mph 60% 0.00 in 610 W/m2
16:10 82.5 °F 66.2 °F 29.83 in NNW 2.0 mph 2.0 mph 58% 0.00 in 592 W/m2
16:16 82.0 °F 66.3 °F 29.83 in North 1.0 mph 2.0 mph 59% 0.00 in 568 W/m2
16:22 81.7 °F 66.5 °F 29.83 in NNW 2.0 mph 2.0 mph 60% 0.00 in 541 W/m2
16:28 81.7 °F 66.9 °F 29.83 in North 2.0 mph 4.0 mph 61% 0.00 in 527 W/m2
16:36 81.3 °F 67.5 °F 29.83 in NW 3.0 mph 4.0 mph 63% 0.00 in 290 W/m2
16:42 81.1 °F 67.3 °F 29.83 in WNW 2.0 mph 4.0 mph 63% 0.00 in 506 W/m2
16:48 80.9 °F 67.1 °F 29.83 in NNW 2.0 mph 4.0 mph 63% 0.00 in 434 W/m2
16:54 80.5 °F 65.8 °F 29.83 in NNW 2.0 mph 2.0 mph 61% 0.00 in 466 W/m2
17:00 80.1 °F 65.9 °F 29.83 in NNW 2.0 mph 2.0 mph 62% 0.00 in 211 W/m2
17:06 79.7 °F 64.1 °F 29.83 in NW 2.0 mph 4.0 mph 59% 0.00 in 195 W/m2
17:12 79.8 °F 64.2 °F 29.83 in NW 2.0 mph 3.0 mph 59% 0.00 in 179 W/m2
17:18 79.7 °F 65.5 °F 29.83 in NNW 1.0 mph 3.0 mph 62% 0.00 in 176 W/m2
17:24 79.8 °F 65.6 °F 29.83 in SW 1.0 mph 3.0 mph 62% 0.00 in 171 W/m2
17:30 79.8 °F 64.2 °F 29.83 in NNE 1.0 mph 1.0 mph 59% 0.00 in 165 W/m2
17:36 79.4 °F 61.3 °F 29.83 in NW 1.0 mph 2.0 mph 54% 0.00 in 171 W/m2
17:42 79.0 °F 60.9 °F 29.83 in NW 1.0 mph 5.0 mph 54% 0.00 in 144 W/m2
17:48 78.6 °F 62.6 °F 29.83 in NW 1.0 mph 5.0 mph 58% 0.00 in 172 W/m2
17:54 78.9 °F 61.9 °F 29.83 in NNW 1.0 mph 1.0 mph 56% 0.00 in 151 W/m2
18:00 79.0 °F 63.0 °F 29.83 in Calm     58% 0.00 in 128 W/m2
18:06 78.6 °F 61.6 °F 29.83 in NNE 1.0 mph 2.0 mph 56% 0.00 in 123 W/m2
18:12 78.3 °F 60.3 °F 29.83 in NNW 1.0 mph 1.0 mph 54% 0.00 in 111 W/m2
18:18 78.0 °F 61.0 °F 29.83 in NNW 1.0 mph 3.0 mph 56% 0.00 in 102 W/m2
18:24 77.7 °F 61.7 °F 29.83 in NNW 1.0 mph 2.0 mph 58% 0.00 in 86 W/m2
18:30 77.3 °F 60.4 °F 29.83 in Calm     56% 0.00 in 97 W/m2
18:36 77.1 °F 60.7 °F 29.83 in North 1.0 mph 4.0 mph 57% 0.00 in 93 W/m2
18:42 77.0 °F 61.1 °F 29.83 in WNW 1.0 mph 1.0 mph 58% 0.00 in 91 W/m2
18:48 76.8 °F 60.9 °F 29.83 in Calm   3.0 mph 58% 0.00 in 88 W/m2
18:54 76.7 °F 60.3 °F 29.83 in NNW 1.0 mph 1.0 mph 57% 0.00 in 84 W/m2
19:00 76.5 °F 60.6 °F 29.83 in WSW 1.0 mph 1.0 mph 58% 0.00 in 77 W/m2
19:06 76.3 °F 60.4 °F 29.83 in Calm   1.0 mph 58% 0.00 in 70 W/m2
19:12 76.2 °F 60.8 °F 29.83 in Calm     59% 0.00 in 65 W/m2
19:18 76.1 °F 60.7 °F 29.83 in Calm     59% 0.00 in 62 W/m2
19:24 75.9 °F 60.5 °F 29.83 in Calm   1.0 mph 59% 0.00 in 58 W/m2
19:30 75.6 °F 59.8 °F 29.83 in Calm   1.0 mph 58% 0.00 in 53 W/m2
19:36 75.4 °F 60.1 °F 29.83 in Calm   1.0 mph 59% 0.00 in 44 W/m2
19:42 75.1 °F 59.8 °F 29.83 in Calm     59% 0.00 in 40 W/m2
19:48 74.8 °F 59.5 °F 29.83 in Calm     59% 0.00 in 37 W/m2
19:54 74.6 °F 59.3 °F 29.83 in Calm     59% 0.00 in 32 W/m2
20:00 74.5 °F 59.7 °F 29.83 in Calm     60% 0.00 in 26 W/m2
20:06 74.2 °F 59.4 °F 29.83 in Calm     60% 0.00 in 21 W/m2
20:12 74.0 °F 59.7 °F 29.83 in Calm     61% 0.00 in 16 W/m2
20:18 73.8 °F 61.3 °F 29.84 in Calm     65% 0.00 in 12 W/m2
20:26 73.1 °F 61.9 °F 29.84 in Calm     68% 0.00 in 5 W/m2
20:32 71.9 °F 62.0 °F 29.84 in Calm     71% 0.00 in 0 W/m2
20:38 70.9 °F 62.2 °F 29.84 in Calm     74% 0.00 in 0 W/m2
20:44 70.0 °F 61.3 °F 29.85 in Calm     74% 0.00 in 0 W/m2
20:50 69.3 °F 61.4 °F 29.85 in Calm     76% 0.00 in 0 W/m2
20:56 68.7 °F 60.8 °F 29.85 in Calm     76% 0.00 in 0 W/m2
21:02 68.1 °F 60.6 °F 29.85 in Calm     77% 0.00 in 0 W/m2
21:08 67.7 °F 60.6 °F 29.85 in Calm     78% 0.00 in 0 W/m2
21:14 67.5 °F 60.8 °F 29.85 in Calm     79% 0.00 in 0 W/m2
21:20 67.0 °F 60.3 °F 29.85 in Calm     79% 0.00 in 0 W/m2
21:26 66.7 °F 60.3 °F 29.85 in Calm     80% 0.00 in 0 W/m2
21:32 66.3 °F 59.9 °F 29.85 in Calm     80% 0.00 in 0 W/m2
21:38 66.0 °F 60.0 °F 29.85 in Calm     81% 0.00 in 0 W/m2
21:44 65.7 °F 60.1 °F 29.85 in Calm     82% 0.00 in 0 W/m2
21:50 65.4 °F 59.8 °F 29.85 in Calm     82% 0.00 in 0 W/m2
21:56 65.1 °F 59.8 °F 29.85 in Calm     83% 0.00 in 0 W/m2
22:02 64.8 °F 59.9 °F 29.85 in Calm     84% 0.00 in 0 W/m2
22:08 64.6 °F 59.7 °F 29.85 in Calm     84% 0.00 in 0 W/m2
22:14 64.5 °F 59.6 °F 29.85 in Calm     84% 0.00 in 0 W/m2
22:20 64.2 °F 59.3 °F 29.85 in Calm     84% 0.00 in 0 W/m2
22:26 63.9 °F 59.0 °F 29.85 in Calm     84% 0.00 in 0 W/m2
22:32 63.7 °F 59.1 °F 29.84 in Calm     85% 0.00 in 0 W/m2
22:38 63.5 °F 59.2 °F 29.84 in Calm     86% 0.00 in 0 W/m2
22:44 63.5 °F 59.2 °F 29.84 in Calm     86% 0.00 in 0 W/m2
22:50 63.5 °F 59.6 °F 29.84 in Calm     87% 0.00 in 0 W/m2
22:56 63.5 °F 59.6 °F 29.84 in Calm     87% 0.00 in 0 W/m2
23:02 63.2 °F 58.9 °F 29.84 in Calm     86% 0.00 in 0 W/m2
23:08 62.9 °F 58.6 °F 29.84 in Calm     86% 0.00 in 0 W/m2
23:14 62.8 °F 58.5 °F 29.84 in Calm     86% 0.00 in 0 W/m2
23:20 62.9 °F 59.0 °F 29.84 in Calm     87% 0.00 in 0 W/m2
23:26 62.6 °F 58.7 °F 29.84 in Calm     87% 0.00 in 0 W/m2
23:32 62.4 °F 58.5 °F 29.85 in Calm     87% 0.00 in 0 W/m2
23:38 62.2 °F 58.3 °F 29.85 in Calm     87% 0.00 in 0 W/m2
23:44 62.1 °F 58.2 °F 29.85 in Calm     87% 0.00 in 0 W/m2
23:50 62.1 °F 58.2 °F 29.85 in Calm     87% 0.00 in 0 W/m2
23:52 62.1 °F 58.2 °F 29.85 in Calm     87% 0.00 in 0 W/m2
23:58 62.0 °F 58.1 °F 29.85 in Calm     87% 0.00 in 0 W/m2
Country Meadow, Clay, NY, USA
Compliments of Weather Underground - 2 mb